Time;durP1;ratioP1;P1;durP2;ratioP2;P2;SDS_P1;SDS_P2;PMS_P1;PMS_P2;Temp;Humidity;BMP_temperature;BMP_pressure;BME280_temperature;BME280_humidity;BME280_pressure;Samples;Min_cycle;Max_cycle;Signal;HPM_P1;HPM_P2
2021/10/16 00:04:55;;;;;;;6.30;4.45;;;;;;;;;;21078687;28;20051;-68
2021/10/16 00:14:57;;;;;;;6.13;4.20;;;;;;;;;;21080514;28;20048;-66
2021/10/16 00:24:58;;;;;;;9.63;4.15;;;;;;;;;;21080873;28;20458;-67
2021/10/16 00:35:00;;;;;;;7.55;4.10;;;;;;;;;;21090366;28;20342;-68
2021/10/16 00:45:03;;;;;;;9.48;4.20;;;;;;;;;;21098791;28;20055;-65
2021/10/16 00:55:08;;;;;;;6.60;3.50;;;;;;;;;;21076826;28;20556;-66
2021/10/16 01:05:10;;;;;;;6.10;3.63;;;;;;;;;;21078856;28;20052;-68
2021/10/16 01:15:13;;;;;;;8.07;4.10;;;;;;;;;;21092263;28;20063;-66
2021/10/16 01:25:17;;;;;;;7.72;4.22;;;;;;;;;;21095422;28;20408;-66
2021/10/16 01:35:19;;;;;;;10.30;4.90;;;;;;;;;;21098957;28;20093;-68
2021/10/16 01:45:21;;;;;;;6.93;4.82;;;;;;;;;;21090522;28;20048;-64
2021/10/16 01:55:23;;;;;;;10.65;5.55;;;;;;;;;;21089408;28;20454;-64
2021/10/16 02:05:25;;;;;;;8.23;4.65;;;;;;;;;;21088616;28;20047;-64
2021/10/16 02:15:28;;;;;;;7.37;4.90;;;;;;;;;;21087765;28;20052;-66
2021/10/16 02:25:30;;;;;;;8.13;4.20;;;;;;;;;;21086381;28;20056;-66
2021/10/16 02:35:34;;;;;;;5.22;3.53;;;;;;;;;;21087020;28;20082;-64
2021/10/16 02:45:39;;;;;;;7.53;4.10;;;;;;;;;;21085860;28;20043;-66
2021/10/16 02:55:45;;;;;;;6.03;4.13;;;;;;;;;;21084836;28;20048;-66
2021/10/16 03:05:47;;;;;;;4.40;3.75;;;;;;;;;;21084589;28;20048;-67
2021/10/16 03:15:50;;;;;;;10.27;5.10;;;;;;;;;;21083365;28;20074;-67
2021/10/16 03:25:56;;;;;;;6.15;4.95;;;;;;;;;;21082307;28;20070;-66
2021/10/16 03:36:00;;;;;;;8.75;4.60;;;;;;;;;;21080765;28;20487;-65
2021/10/16 03:46:03;;;;;;;7.17;4.60;;;;;;;;;;21080435;28;20055;-65
2021/10/16 03:56:05;;;;;;;7.82;4.10;;;;;;;;;;21080229;28;20060;-66
2021/10/16 04:06:07;;;;;;;7.00;4.30;;;;;;;;;;21080088;28;20454;-64
2021/10/16 04:16:15;;;;;;;7.05;4.28;;;;;;;;;;21079223;28;20106;-66
2021/10/16 04:26:20;;;;;;;8.43;4.43;;;;;;;;;;21078858;28;20083;-67
2021/10/16 04:36:22;;;;;;;8.63;4.82;;;;;;;;;;21081527;28;20136;-67
2021/10/16 04:46:26;;;;;;;10.07;4.35;;;;;;;;;;21088942;28;20059;-65
2021/10/16 04:56:29;;;;;;;6.18;3.58;;;;;;;;;;21094800;28;20052;-66
2021/10/16 05:06:32;;;;;;;6.97;4.07;;;;;;;;;;21094632;28;20047;-66
2021/10/16 05:16:35;;;;;;;15.43;5.00;;;;;;;;;;21093123;28;20055;-66
2021/10/16 05:26:37;;;;;;;7.90;4.63;;;;;;;;;;21091561;28;20157;-66
2021/10/16 05:36:38;;;;;;;5.68;4.15;;;;;;;;;;21092369;28;20074;-64
2021/10/16 05:46:40;;;;;;;6.13;3.65;;;;;;;;;;21091404;28;20067;-68
2021/10/16 05:56:44;;;;;;;6.82;4.22;;;;;;;;;;21088670;28;20093;-66
2021/10/16 06:06:46;;;;;;;6.10;3.90;;;;;;;;;;21091462;28;20040;-64
2021/10/16 06:16:47;;;;;;;7.07;4.40;;;;;;;;;;21087432;28;20048;-64
2021/10/16 06:26:49;;;;;;;7.10;4.47;;;;;;;;;;21088250;28;20518;-66
2021/10/16 06:36:51;;;;;;;6.97;4.45;;;;;;;;;;21086748;28;20411;-67
2021/10/16 06:46:54;;;;;;;7.15;4.10;;;;;;;;;;21086991;28;20403;-66
2021/10/16 06:56:56;;;;;;;7.90;4.63;;;;;;;;;;21084230;28;20409;-66
2021/10/16 07:06:58;;;;;;;7.90;4.63;;;;;;;;;;21084636;28;20128;-67
2021/10/16 07:17:00;;;;;;;8.40;4.40;;;;;;;;;;21083761;28;20060;-67
2021/10/16 07:27:02;;;;;;;6.65;4.82;;;;;;;;;;21082697;28;20040;-67
2021/10/16 07:37:05;;;;;;;8.60;4.55;;;;;;;;;;21081095;28;20382;-66
2021/10/16 07:47:07;;;;;;;10.98;5.20;;;;;;;;;;21080800;28;20044;-67
2021/10/16 07:57:09;;;;;;;7.30;4.72;;;;;;;;;;21080428;28;20062;-66
2021/10/16 08:07:11;;;;;;;8.73;5.13;;;;;;;;;;21079520;28;20048;-66
2021/10/16 08:17:13;;;;;;;12.55;5.57;;;;;;;;;;21079897;28;20059;-66
2021/10/16 08:27:15;;;;;;;11.00;5.47;;;;;;;;;;21078166;28;20052;-65
2021/10/16 08:37:17;;;;;;;11.10;5.75;;;;;;;;;;21076780;28;20051;-66
2021/10/16 08:47:20;;;;;;;12.80;6.63;;;;;;;;;;21078027;28;20044;-67
2021/10/16 08:57:22;;;;;;;13.20;5.90;;;;;;;;;;21085261;28;20416;-67
2021/10/16 09:07:25;;;;;;;10.45;6.05;;;;;;;;;;21097717;28;20093;-66
2021/10/16 09:17:27;;;;;;;10.20;6.55;;;;;;;;;;21077390;28;20404;-66
2021/10/16 09:27:29;;;;;;;8.02;4.78;;;;;;;;;;21053342;28;20070;-59
2021/10/16 09:37:31;;;;;;;9.52;6.13;;;;;;;;;;21040998;28;20055;-70
2021/10/16 09:47:33;;;;;;;11.02;5.78;;;;;;;;;;21014218;28;20473;-68
2021/10/16 09:57:36;;;;;;;11.27;5.30;;;;;;;;;;21003564;28;20052;-68
2021/10/16 10:07:39;;;;;;;6.97;4.70;;;;;;;;;;21003225;28;20047;-68
2021/10/16 10:17:42;;;;;;;7.72;5.30;;;;;;;;;;21002282;28;20071;-68
2021/10/16 10:27:45;;;;;;;10.47;4.77;;;;;;;;;;21001590;28;20127;-68
2021/10/16 10:37:53;;;;;;;12.87;5.13;;;;;;;;;;21000810;28;20059;-68
2021/10/16 10:47:58;;;;;;;14.15;4.80;;;;;;;;;;20999270;28;20044;-67
2021/10/16 10:58:01;;;;;;;10.75;6.03;;;;;;;;;;20998617;28;20135;-67
2021/10/16 11:08:14;;;;;;;10.43;5.55;;;;;;;;;;20999440;28;20044;-68
2021/10/16 11:18:16;;;;;;;11.55;6.18;;;;;;;;;;20997017;28;20049;-67
2021/10/16 11:28:20;;;;;;;15.07;5.63;;;;;;;;;;20998826;28;20110;-68
2021/10/16 11:38:25;;;;;;;10.73;4.50;;;;;;;;;;20997756;28;20056;-64
2021/10/16 11:48:27;;;;;;;11.25;5.40;;;;;;;;;;20993190;28;20051;-68
2021/10/16 11:58:30;;;;;;;9.63;5.57;;;;;;;;;;20993493;28;20102;-60
2021/10/16 12:08:43;;;;;;;11.10;5.73;;;;;;;;;;20994657;28;20076;-65
2021/10/16 12:19:04;;;;;;;8.63;5.85;;;;;;;;;;20993442;28;20055;-65
2021/10/16 12:29:10;;;;;;;11.40;6.68;;;;;;;;;;20992775;28;20049;-58
2021/10/16 12:39:12;;;;;;;10.98;6.43;;;;;;;;;;20991136;28;20052;-61
2021/10/16 12:49:30;;;;;;;8.90;6.35;;;;;;;;;;20991181;28;20055;-60
2021/10/16 12:59:32;;;;;;;11.43;6.88;;;;;;;;;;20991587;28;20052;-61
2021/10/16 13:09:34;;;;;;;12.18;6.82;;;;;;;;;;21004289;28;20048;-61
2021/10/16 13:19:37;;;;;;;9.85;6.55;;;;;;;;;;21006506;28;20181;-65
2021/10/16 13:29:39;;;;;;;11.07;6.05;;;;;;;;;;21006651;28;20087;-65
2021/10/16 13:39:41;;;;;;;8.50;6.60;;;;;;;;;;21006624;28;20511;-61
2021/10/16 13:49:45;;;;;;;10.40;6.28;;;;;;;;;;21006772;28;20392;-65
2021/10/16 13:59:47;;;;;;;11.18;6.20;;;;;;;;;;21004930;28;20052;-60
2021/10/16 14:09:49;;;;;;;10.13;6.90;;;;;;;;;;21005403;28;20071;-62
2021/10/16 14:19:50;;;;;;;7.78;5.25;;;;;;;;;;21003102;28;20071;-59
2021/10/16 14:29:54;;;;;;;10.70;5.53;;;;;;;;;;21002652;28;20408;-59
2021/10/16 14:39:56;;;;;;;7.63;5.28;;;;;;;;;;21003474;28;20102;-64
2021/10/16 14:49:57;;;;;;;7.78;5.03;;;;;;;;;;21001141;28;20135;-64
2021/10/16 14:59:59;;;;;;;13.48;5.22;;;;;;;;;;21001064;28;20064;-65
2021/10/16 15:10:02;;;;;;;7.28;4.60;;;;;;;;;;21001688;28;20051;-61
2021/10/16 15:20:06;;;;;;;9.75;5.57;;;;;;;;;;20998875;28;20496;-64
2021/10/16 15:30:09;;;;;;;10.93;5.43;;;;;;;;;;20998979;28;20044;-64
2021/10/16 15:40:11;;;;;;;9.87;5.67;;;;;;;;;;20996946;28;20056;-65
2021/10/16 15:50:13;;;;;;;10.23;5.07;;;;;;;;;;20997237;28;20092;-63
2021/10/16 16:00:15;;;;;;;16.60;13.00;;;;;;;;;;20996003;28;20512;-66
2021/10/16 16:10:17;;;;;;;8.13;4.60;;;;;;;;;;20995719;28;20071;-62
2021/10/16 16:20:20;;;;;;;10.18;5.35;;;;;;;;;;20994635;28;20048;-61
2021/10/16 16:30:22;;;;;;;12.32;5.57;;;;;;;;;;20994351;28;20078;-63
2021/10/16 16:40:23;;;;;;;10.38;5.30;;;;;;;;;;21001324;28;20086;-60
2021/10/16 16:50:25;;;;;;;7.82;5.03;;;;;;;;;;21010965;28;20113;-59
2021/10/16 17:00:27;;;;;;;10.68;5.55;;;;;;;;;;21009027;28;20148;-60
2021/10/16 17:10:28;;;;;;;8.55;5.18;;;;;;;;;;21006720;28;20048;-60
2021/10/16 17:20:30;;;;;;;9.73;5.00;;;;;;;;;;21008544;28;20160;-61
2021/10/16 17:30:32;;;;;;;11.20;7.93;;;;;;;;;;21007768;28;20048;-60
2021/10/16 17:40:34;;;;;;;13.75;8.10;;;;;;;;;;21007346;28;20500;-59
2021/10/16 17:50:36;;;;;;;10.82;7.40;;;;;;;;;;21005871;28;20044;-62
2021/10/16 18:00:38;;;;;;;16.30;9.07;;;;;;;;;;21005098;28;20060;-64
2021/10/16 18:10:41;;;;;;;14.70;7.57;;;;;;;;;;21004828;28;20182;-66
2021/10/16 18:20:43;;;;;;;14.40;8.57;;;;;;;;;;21003117;28;20052;-61
2021/10/16 18:30:45;;;;;;;15.80;9.15;;;;;;;;;;21003714;28;20045;-61
2021/10/16 18:40:47;;;;;;;15.00;10.88;;;;;;;;;;21002319;28;20267;-62
2021/10/16 18:50:52;;;;;;;16.13;10.68;;;;;;;;;;21000804;28;20044;-65
2021/10/16 19:00:54;;;;;;;22.27;12.00;;;;;;;;;;21000023;28;20397;-63
2021/10/16 19:10:55;;;;;;;35.90;19.05;;;;;;;;;;20999391;28;20126;-62
2021/10/16 19:20:57;;;;;;;30.02;21.35;;;;;;;;;;20997341;28;20049;-61
2021/10/16 19:30:59;;;;;;;21.73;12.63;;;;;;;;;;20997387;28;20080;-66
2021/10/16 19:41:01;;;;;;;54.22;33.95;;;;;;;;;;20997076;28;20064;-62
2021/10/16 19:51:03;;;;;;;26.73;16.65;;;;;;;;;;20997033;28;20056;-62
2021/10/16 20:01:05;;;;;;;28.77;17.08;;;;;;;;;;20997169;28;20075;-60
2021/10/16 20:11:09;;;;;;;30.58;19.15;;;;;;;;;;20996218;28;20044;-60
2021/10/16 20:21:13;;;;;;;;;;;;;;;;;;20995942;28;20070;-63
2021/10/16 20:31:14;;;;;;;45.10;27.07;;;;;;;;;;20997091;28;19964;-60
2021/10/16 20:41:17;;;;;;;26.08;16.00;;;;;;;;;;20995931;28;20052;-60
2021/10/16 20:51:18;;;;;;;26.98;14.15;;;;;;;;;;20995085;28;20056;-64
2021/10/16 21:01:20;;;;;;;13.25;8.88;;;;;;;;;;20995031;28;20055;-64
2021/10/16 21:11:22;;;;;;;15.35;9.98;;;;;;;;;;20994388;28;20060;-64
2021/10/16 21:21:24;;;;;;;19.08;10.45;;;;;;;;;;20994122;28;20056;-63
2021/10/16 21:31:25;;;;;;;22.98;19.58;;;;;;;;;;21007982;28;20431;-63
2021/10/16 21:41:27;;;;;;;20.15;10.27;;;;;;;;;;21010026;28;20476;-64
2021/10/16 21:51:31;;;;;;;17.50;9.68;;;;;;;;;;21007440;28;20048;-61
2021/10/16 22:01:33;;;;;;;;;;;;;;;;;;21007815;28;20412;-64
2021/10/16 22:11:35;;;;;;;13.75;7.75;;;;;;;;;;21006141;28;20003;-61
2021/10/16 22:21:38;;;;;;;12.80;7.90;;;;;;;;;;21005003;28;20144;-61
2021/10/16 22:31:40;;;;;;;15.17;8.33;;;;;;;;;;21004838;28;20401;-63
2021/10/16 22:41:41;;;;;;;16.90;9.13;;;;;;;;;;21004788;28;20048;-61
2021/10/16 22:51:43;;;;;;;13.10;8.40;;;;;;;;;;21002331;28;20041;-60
2021/10/16 23:01:45;;;;;;;13.80;9.07;;;;;;;;;;21001951;28;20064;-60
2021/10/16 23:11:46;;;;;;;10.57;7.05;;;;;;;;;;21001823;28;20047;-62
2021/10/16 23:21:48;;;;;;;15.00;8.88;;;;;;;;;;20999738;28;20546;-60
2021/10/16 23:31:50;;;;;;;16.63;8.15;;;;;;;;;;20999581;28;20496;-63
2021/10/16 23:41:52;;;;;;;10.43;7.75;;;;;;;;;;20997760;28;20071;-65
2021/10/16 23:51:54;;;;;;;12.40;9.15;;;;;;;;;;20994872;28;20053;-63
